sensor_id;sensor_type;location;lat;lon;timestamp;pressure;altitude;pressure_sealevel;temperature;humidity
64886;BME280;51514;52.206;5.114;2023-05-29T00:00:00;102529.56;;;12.89;76.44
64886;BME280;51514;52.206;5.114;2023-05-29T00:02:26;102535.25;;;12.86;76.35
64886;BME280;51514;52.206;5.114;2023-05-29T00:04:51;102536.97;;;12.87;76.17
64886;BME280;51514;52.206;5.114;2023-05-29T00:07:16;102531.81;;;12.84;76.29
64886;BME280;51514;52.206;5.114;2023-05-29T00:09:42;102539.09;;;12.83;76.38
64886;BME280;51514;52.206;5.114;2023-05-29T00:12:07;102530.97;;;12.83;76.50
64886;BME280;51514;52.206;5.114;2023-05-29T00:14:32;102536.38;;;12.83;76.19
64886;BME280;51514;52.206;5.114;2023-05-29T00:16:58;102530.22;;;12.81;75.60
64886;BME280;51514;52.206;5.114;2023-05-29T00:19:23;102534.06;;;12.78;75.91
64886;BME280;51514;52.206;5.114;2023-05-29T00:21:50;102532.50;;;12.76;75.78
64886;BME280;51514;52.206;5.114;2023-05-29T00:24:15;102538.03;;;12.74;75.42
64886;BME280;51514;52.206;5.114;2023-05-29T00:26:42;102531.16;;;12.70;75.33
64886;BME280;51514;52.206;5.114;2023-05-29T00:29:07;102534.25;;;12.66;75.15
64886;BME280;51514;52.206;5.114;2023-05-29T00:31:32;102529.25;;;12.61;75.01
64886;BME280;51514;52.206;5.114;2023-05-29T00:33:58;102531.34;;;12.58;75.15
64886;BME280;51514;52.206;5.114;2023-05-29T00:36:23;102537.59;;;12.58;75.14
64886;BME280;51514;52.206;5.114;2023-05-29T00:38:50;102550.41;;;12.56;75.17
64886;BME280;51514;52.206;5.114;2023-05-29T00:41:16;102553.09;;;12.56;75.08
64886;BME280;51514;52.206;5.114;2023-05-29T00:43:42;102559.50;;;12.55;75.14
64886;BME280;51514;52.206;5.114;2023-05-29T00:46:09;102553.50;;;12.52;74.92
64886;BME280;51514;52.206;5.114;2023-05-29T00:48:34;102560.78;;;12.51;75.10
64886;BME280;51514;52.206;5.114;2023-05-29T00:51:00;102563.72;;;12.48;75.00
64886;BME280;51514;52.206;5.114;2023-05-29T00:53:25;102561.28;;;12.45;74.95
64886;BME280;51514;52.206;5.114;2023-05-29T00:55:51;102560.56;;;12.43;74.91
64886;BME280;51514;52.206;5.114;2023-05-29T00:58:17;102568.53;;;12.44;74.59
64886;BME280;51514;52.206;5.114;2023-05-29T01:00:42;102565.69;;;12.46;74.98
64886;BME280;51514;52.206;5.114;2023-05-29T01:03:08;102567.66;;;12.44;74.57
64886;BME280;51514;52.206;5.114;2023-05-29T01:05:34;102566.97;;;12.42;74.62
64886;BME280;51514;52.206;5.114;2023-05-29T01:08:02;102566.97;;;12.42;74.73
64886;BME280;51514;52.206;5.114;2023-05-29T01:10:27;102571.50;;;12.41;74.42
64886;BME280;51514;52.206;5.114;2023-05-29T01:13:18;102574.47;;;12.38;74.40
64886;BME280;51514;52.206;5.114;2023-05-29T01:16:12;102576.31;;;12.38;74.39
64886;BME280;51514;52.206;5.114;2023-05-29T01:18:46;102572.13;;;12.34;74.61
64886;BME280;51514;52.206;5.114;2023-05-29T01:24:26;102586.50;;;12.34;74.09
64886;BME280;51514;52.206;5.114;2023-05-29T01:27:04;102589.38;;;12.33;74.49
64886;BME280;51514;52.206;5.114;2023-05-29T01:29:34;102589.38;;;12.33;74.27
64886;BME280;51514;52.206;5.114;2023-05-29T01:32:00;102595.16;;;12.28;74.57
64886;BME280;51514;52.206;5.114;2023-05-29T01:34:27;102590.84;;;12.26;74.50
64886;BME280;51514;52.206;5.114;2023-05-29T01:36:53;102605.34;;;12.25;74.70
64886;BME280;51514;52.206;5.114;2023-05-29T01:39:19;102603.63;;;12.24;74.75
64886;BME280;51514;52.206;5.114;2023-05-29T01:41:46;102601.22;;;12.21;74.48
64886;BME280;51514;52.206;5.114;2023-05-29T01:44:12;102601.22;;;12.21;74.59
64886;BME280;51514;52.206;5.114;2023-05-29T01:46:39;102603.16;;;12.19;74.71
64886;BME280;51514;52.206;5.114;2023-05-29T01:49:05;102605.13;;;12.17;74.66
64886;BME280;51514;52.206;5.114;2023-05-29T01:51:31;102600.47;;;12.19;74.65
64886;BME280;51514;52.206;5.114;2023-05-29T01:53:56;102614.13;;;12.17;74.75
64886;BME280;51514;52.206;5.114;2023-05-29T01:56:23;102609.81;;;12.15;75.04
64886;BME280;51514;52.206;5.114;2023-05-29T01:58:49;102618.91;;;12.14;75.16
64886;BME280;51514;52.206;5.114;2023-05-29T02:01:15;102625.56;;;12.10;75.40
64886;BME280;51514;52.206;5.114;2023-05-29T02:03:41;102617.69;;;12.06;75.31
64886;BME280;51514;52.206;5.114;2023-05-29T02:06:06;102621.38;;;12.05;75.43
64886;BME280;51514;52.206;5.114;2023-05-29T02:08:32;102625.06;;;12.04;75.20
64886;BME280;51514;52.206;5.114;2023-05-29T02:10:57;102619.66;;;12.04;75.48
64886;BME280;51514;52.206;5.114;2023-05-29T02:13:22;102616.50;;;11.99;75.59
64886;BME280;51514;52.206;5.114;2023-05-29T02:15:47;102613.91;;;11.98;75.59
64886;BME280;51514;52.206;5.114;2023-05-29T02:18:15;102613.16;;;11.96;75.59
64886;BME280;51514;52.206;5.114;2023-05-29T02:20:40;102613.53;;;11.91;75.89
64886;BME280;51514;52.206;5.114;2023-05-29T02:23:08;102617.59;;;11.86;76.09
64886;BME280;51514;52.206;5.114;2023-05-29T02:25:34;102616.09;;;11.82;76.40
64886;BME280;51514;52.206;5.114;2023-05-29T02:28:00;102609.84;;;11.81;76.20
64886;BME280;51514;52.206;5.114;2023-05-29T02:30:27;102612.81;;;11.78;76.37
64886;BME280;51514;52.206;5.114;2023-05-29T02:32:52;102608.38;;;11.77;76.51
64886;BME280;51514;52.206;5.114;2023-05-29T02:35:18;102615.84;;;11.74;76.51
64886;BME280;51514;52.206;5.114;2023-05-29T02:37:46;102614.13;;;11.73;76.19
64886;BME280;51514;52.206;5.114;2023-05-29T02:40:11;102614.25;;;11.71;76.47
64886;BME280;51514;52.206;5.114;2023-05-29T02:42:36;102614.88;;;11.75;76.27
64886;BME280;51514;52.206;5.114;2023-05-29T02:45:02;102619.53;;;11.73;76.11
64886;BME280;51514;52.206;5.114;2023-05-29T02:47:28;102617.22;;;11.68;76.33
64886;BME280;51514;52.206;5.114;2023-05-29T02:49:53;102612.78;;;11.67;76.31
64886;BME280;51514;52.206;5.114;2023-05-29T02:52:20;102608.34;;;11.66;76.14
64886;BME280;51514;52.206;5.114;2023-05-29T02:54:48;102607.63;;;11.64;76.14
64886;BME280;51514;52.206;5.114;2023-05-29T02:57:13;102612.03;;;11.65;76.13
64886;BME280;51514;52.206;5.114;2023-05-29T02:59:39;102607.00;;;11.60;76.18
64886;BME280;51514;52.206;5.114;2023-05-29T03:02:04;102627.75;;;11.60;76.08
64886;BME280;51514;52.206;5.114;2023-05-29T03:04:29;102624.19;;;11.59;76.16
64886;BME280;51514;52.206;5.114;2023-05-29T03:06:55;102624.19;;;11.59;76.07
64886;BME280;51514;52.206;5.114;2023-05-29T03:09:20;102619.91;;;11.57;75.88
64886;BME280;51514;52.206;5.114;2023-05-29T03:11:46;102627.00;;;11.58;76.16
64886;BME280;51514;52.206;5.114;2023-05-29T03:14:13;102619.03;;;11.56;75.79
64886;BME280;51514;52.206;5.114;2023-05-29T03:16:38;102624.44;;;11.56;75.77
64886;BME280;51514;52.206;5.114;2023-05-29T03:19:06;102620.13;;;11.54;75.92
64886;BME280;51514;52.206;5.114;2023-05-29T03:21:33;102614.00;;;11.52;75.95
64886;BME280;51514;52.206;5.114;2023-05-29T03:23:58;102610.31;;;11.53;75.96
64886;BME280;51514;52.206;5.114;2023-05-29T03:26:23;102611.28;;;11.52;75.78
64886;BME280;51514;52.206;5.114;2023-05-29T03:28:51;102618.53;;;11.51;75.81
64886;BME280;51514;52.206;5.114;2023-05-29T03:31:16;102616.94;;;11.49;75.63
64886;BME280;51514;52.206;5.114;2023-05-29T03:33:41;102619.63;;;11.49;75.91
64886;BME280;51514;52.206;5.114;2023-05-29T03:36:07;102617.03;;;11.47;75.72
64886;BME280;51514;52.206;5.114;2023-05-29T03:38:32;102613.75;;;11.44;75.73
64886;BME280;51514;52.206;5.114;2023-05-29T03:40:58;102613.00;;;11.42;75.96
64886;BME280;51514;52.206;5.114;2023-05-29T03:43:23;102624.44;;;11.45;76.03
64886;BME280;51514;52.206;5.114;2023-05-29T03:45:48;102615.59;;;11.43;75.91
64886;BME280;51514;52.206;5.114;2023-05-29T03:48:14;102621.84;;;11.44;75.91
64886;BME280;51514;52.206;5.114;2023-05-29T03:50:40;102617.31;;;11.44;75.86
64886;BME280;51514;52.206;5.114;2023-05-29T03:53:06;102625.41;;;11.44;75.78
64886;BME280;51514;52.206;5.114;2023-05-29T03:55:31;102619.16;;;11.44;75.66
64886;BME280;51514;52.206;5.114;2023-05-29T03:57:57;102629.94;;;11.44;75.97
64886;BME280;51514;52.206;5.114;2023-05-29T04:00:22;102622.81;;;11.43;75.45
64886;BME280;51514;52.206;5.114;2023-05-29T04:02:47;102623.69;;;11.43;75.39
64886;BME280;51514;52.206;5.114;2023-05-29T04:05:13;102621.09;;;11.42;75.44
64886;BME280;51514;52.206;5.114;2023-05-29T04:07:39;102632.66;;;11.44;75.67
64886;BME280;51514;52.206;5.114;2023-05-29T04:10:05;102632.88;;;11.41;75.52
64886;BME280;51514;52.206;5.114;2023-05-29T04:12:32;102639.03;;;11.43;75.51
64886;BME280;51514;52.206;5.114;2023-05-29T04:14:57;102633.75;;;11.41;75.43
64886;BME280;51514;52.206;5.114;2023-05-29T04:17:23;102644.56;;;11.41;75.64
64886;BME280;51514;52.206;5.114;2023-05-29T04:19:48;102638.41;;;11.39;75.62
64886;BME280;51514;52.206;5.114;2023-05-29T04:22:14;102649.84;;;11.43;75.47
64886;BME280;51514;52.206;5.114;2023-05-29T04:24:39;102652.41;;;11.44;75.54
64886;BME280;51514;52.206;5.114;2023-05-29T04:27:05;102653.28;;;11.45;75.42
64886;BME280;51514;52.206;5.114;2023-05-29T04:29:30;102658.56;;;11.46;75.55
64886;BME280;51514;52.206;5.114;2023-05-29T04:31:57;102667.38;;;11.48;75.60
64886;BME280;51514;52.206;5.114;2023-05-29T04:34:23;102651.06;;;11.50;75.74
64886;BME280;51514;52.206;5.114;2023-05-29T04:36:48;102660.66;;;11.54;76.04
64886;BME280;51514;52.206;5.114;2023-05-29T04:39:14;102659.31;;;11.59;75.54
64886;BME280;51514;52.206;5.114;2023-05-29T04:41:40;102665.34;;;11.63;75.34
64886;BME280;51514;52.206;5.114;2023-05-29T04:44:06;102665.97;;;11.66;74.75
64886;BME280;51514;52.206;5.114;2023-05-29T04:46:31;102670.97;;;11.71;75.34
64886;BME280;51514;52.206;5.114;2023-05-29T04:48:56;102668.06;;;11.74;75.18
64886;BME280;51514;52.206;5.114;2023-05-29T04:51:22;102671.41;;;11.78;75.34
64886;BME280;51514;52.206;5.114;2023-05-29T04:53:49;102667.56;;;11.80;74.63
64886;BME280;51514;52.206;5.114;2023-05-29T04:56:15;102673.63;;;11.84;74.93
64886;BME280;51514;52.206;5.114;2023-05-29T04:58:41;102676.81;;;11.89;75.19
64886;BME280;51514;52.206;5.114;2023-05-29T05:01:07;102672.13;;;11.91;74.55
64886;BME280;51514;52.206;5.114;2023-05-29T05:03:34;102676.44;;;11.93;74.38
64886;BME280;51514;52.206;5.114;2023-05-29T05:06:00;102677.91;;;11.97;74.32
64886;BME280;51514;52.206;5.114;2023-05-29T05:08:30;102669.19;;;12.05;74.43
64886;BME280;51514;52.206;5.114;2023-05-29T05:10:56;102672.50;;;12.09;73.64
64886;BME280;51514;52.206;5.114;2023-05-29T05:13:22;102678.91;;;12.19;73.45
64886;BME280;51514;52.206;5.114;2023-05-29T05:15:48;102681.09;;;12.25;72.86
64886;BME280;51514;52.206;5.114;2023-05-29T05:18:13;102674.22;;;12.32;73.38
64886;BME280;51514;52.206;5.114;2023-05-29T05:20:38;102672.97;;;12.36;73.16
64886;BME280;51514;52.206;5.114;2023-05-29T05:23:04;102675.28;;;12.40;72.93
64886;BME280;51514;52.206;5.114;2023-05-29T05:25:29;102671.84;;;12.50;72.99
64886;BME280;51514;52.206;5.114;2023-05-29T05:27:55;102667.50;;;12.58;73.16
64886;BME280;51514;52.206;5.114;2023-05-29T05:30:20;102672.53;;;12.63;72.46
64886;BME280;51514;52.206;5.114;2023-05-29T05:32:45;102674.47;;;12.72;73.06
64886;BME280;51514;52.206;5.114;2023-05-29T05:35:11;102671.25;;;12.78;72.43
64886;BME280;51514;52.206;5.114;2023-05-29T05:37:37;102669.16;;;12.82;71.91
64886;BME280;51514;52.206;5.114;2023-05-29T05:40:03;102672.91;;;12.90;72.06
64886;BME280;51514;52.206;5.114;2023-05-29T05:42:31;102670.09;;;12.92;71.20
64886;BME280;51514;52.206;5.114;2023-05-29T05:44:57;102676.84;;;12.97;70.59
64886;BME280;51514;52.206;5.114;2023-05-29T05:47:22;102676.44;;;13.02;70.86
64886;BME280;51514;52.206;5.114;2023-05-29T05:49:47;102681.34;;;13.08;70.56
64886;BME280;51514;52.206;5.114;2023-05-29T05:52:14;102686.03;;;13.17;70.19
64886;BME280;51514;52.206;5.114;2023-05-29T05:54:40;102678.34;;;13.22;69.01
64886;BME280;51514;52.206;5.114;2023-05-29T05:57:05;102683.38;;;13.27;68.55
64886;BME280;51514;52.206;5.114;2023-05-29T05:59:32;102688.13;;;13.34;68.70
64886;BME280;51514;52.206;5.114;2023-05-29T06:01:57;102691.31;;;13.39;68.27
64886;BME280;51514;52.206;5.114;2023-05-29T06:04:23;102684.91;;;13.40;66.99
64886;BME280;51514;52.206;5.114;2023-05-29T06:06:48;102696.19;;;13.45;66.96
64886;BME280;51514;52.206;5.114;2023-05-29T06:09:14;102691.69;;;13.56;66.76
64886;BME280;51514;52.206;5.114;2023-05-29T06:11:39;102698.44;;;13.61;65.94
64886;BME280;51514;52.206;5.114;2023-05-29T06:14:05;102688.66;;;13.70;65.65
64886;BME280;51514;52.206;5.114;2023-05-29T06:16:30;102692.09;;;13.72;64.58
64886;BME280;51514;52.206;5.114;2023-05-29T06:18:56;102690.81;;;13.76;65.38
64886;BME280;51514;52.206;5.114;2023-05-29T06:21:21;102686.84;;;13.80;64.06
64886;BME280;51514;52.206;5.114;2023-05-29T06:23:47;102684.88;;;13.82;64.18
64886;BME280;51514;52.206;5.114;2023-05-29T06:26:13;102680.88;;;13.86;64.52
64886;BME280;51514;52.206;5.114;2023-05-29T06:28:38;102691.06;;;13.94;64.44
64886;BME280;51514;52.206;5.114;2023-05-29T06:31:03;102687.81;;;14.00;63.30
64886;BME280;51514;52.206;5.114;2023-05-29T06:33:29;102690.69;;;14.08;63.49
64886;BME280;51514;52.206;5.114;2023-05-29T06:35:55;102690.72;;;14.17;63.72
64886;BME280;51514;52.206;5.114;2023-05-29T06:38:20;102706.84;;;14.19;63.05
64886;BME280;51514;52.206;5.114;2023-05-29T06:40:46;102703.47;;;14.27;62.97
64886;BME280;51514;52.206;5.114;2023-05-29T06:43:11;102697.50;;;14.33;62.10
64886;BME280;51514;52.206;5.114;2023-05-29T06:45:37;102700.94;;;14.35;61.92
64886;BME280;51514;52.206;5.114;2023-05-29T06:48:02;102695.97;;;14.40;61.50
64886;BME280;51514;52.206;5.114;2023-05-29T06:50:28;102701.84;;;14.45;61.80
64886;BME280;51514;52.206;5.114;2023-05-29T06:52:53;102700.72;;;14.47;60.86
64886;BME280;51514;52.206;5.114;2023-05-29T06:55:19;102706.56;;;14.52;60.42
64886;BME280;51514;52.206;5.114;2023-05-29T06:57:44;102704.19;;;14.59;60.98
64886;BME280;51514;52.206;5.114;2023-05-29T07:00:10;102706.78;;;14.70;60.40
64886;BME280;51514;52.206;5.114;2023-05-29T07:02:36;102718.06;;;14.75;60.89
64886;BME280;51514;52.206;5.114;2023-05-29T07:05:02;102708.78;;;14.87;60.57
64886;BME280;51514;52.206;5.114;2023-05-29T07:07:27;102711.97;;;14.92;59.74
64886;BME280;51514;52.206;5.114;2023-05-29T07:09:52;102713.97;;;15.00;59.92
64886;BME280;51514;52.206;5.114;2023-05-29T07:12:18;102709.06;;;15.04;59.24
64886;BME280;51514;52.206;5.114;2023-05-29T07:14:43;102711.66;;;15.05;58.90
64886;BME280;51514;52.206;5.114;2023-05-29T07:17:09;102712.69;;;15.14;59.22
64886;BME280;51514;52.206;5.114;2023-05-29T07:19:35;102720.25;;;15.20;58.13
64886;BME280;51514;52.206;5.114;2023-05-29T07:22:00;102731.38;;;15.17;57.63
64886;BME280;51514;52.206;5.114;2023-05-29T07:24:25;102727.09;;;15.14;57.45
64886;BME280;51514;52.206;5.114;2023-05-29T07:26:52;102729.97;;;15.13;57.27
64886;BME280;51514;52.206;5.114;2023-05-29T07:29:17;102720.84;;;15.14;58.07
64886;BME280;51514;52.206;5.114;2023-05-29T07:31:45;102723.53;;;15.23;58.30
64886;BME280;51514;52.206;5.114;2023-05-29T07:34:11;102723.81;;;15.30;58.21
64886;BME280;51514;52.206;5.114;2023-05-29T07:36:36;102723.94;;;15.38;58.10
64886;BME280;51514;52.206;5.114;2023-05-29T07:39:02;102728.09;;;15.42;57.27
64886;BME280;51514;52.206;5.114;2023-05-29T07:41:27;102720.38;;;15.38;56.48
64886;BME280;51514;52.206;5.114;2023-05-29T07:43:53;102726.53;;;15.30;56.42
64886;BME280;51514;52.206;5.114;2023-05-29T07:46:20;102725.81;;;15.28;56.22
64886;BME280;51514;52.206;5.114;2023-05-29T07:48:46;102725.41;;;15.32;56.30
64886;BME280;51514;52.206;5.114;2023-05-29T07:51:12;102721.22;;;15.38;56.78
64886;BME280;51514;52.206;5.114;2023-05-29T07:53:37;102727.50;;;15.48;56.03
64886;BME280;51514;52.206;5.114;2023-05-29T07:56:03;102726.25;;;15.62;56.49
64886;BME280;51514;52.206;5.114;2023-05-29T07:58:28;102729.94;;;15.70;56.25
64886;BME280;51514;52.206;5.114;2023-05-29T08:00:54;102731.50;;;15.83;56.23
64886;BME280;51514;52.206;5.114;2023-05-29T08:03:19;102731.31;;;15.94;55.47
64886;BME280;51514;52.206;5.114;2023-05-29T08:05:45;102728.44;;;16.05;55.71
64886;BME280;51514;52.206;5.114;2023-05-29T08:08:10;102729.84;;;16.09;54.88
64886;BME280;51514;52.206;5.114;2023-05-29T08:10:39;102728.81;;;16.20;56.08
64886;BME280;51514;52.206;5.114;2023-05-29T08:13:04;102733.53;;;16.18;53.92
64886;BME280;51514;52.206;5.114;2023-05-29T08:15:30;102729.81;;;16.19;54.46
64886;BME280;51514;52.206;5.114;2023-05-29T08:17:56;102733.09;;;16.22;53.79
64886;BME280;51514;52.206;5.114;2023-05-29T08:20:22;102738.84;;;16.19;53.20
64886;BME280;51514;52.206;5.114;2023-05-29T08:22:47;102736.66;;;16.23;53.12
64886;BME280;51514;52.206;5.114;2023-05-29T08:25:12;102734.34;;;16.28;54.34
64886;BME280;51514;52.206;5.114;2023-05-29T08:27:38;102734.59;;;16.34;53.44
64886;BME280;51514;52.206;5.114;2023-05-29T08:30:03;102730.28;;;16.41;53.44
64886;BME280;51514;52.206;5.114;2023-05-29T08:32:29;102733.41;;;16.47;53.08
64886;BME280;51514;52.206;5.114;2023-05-29T08:34:54;102739.38;;;16.32;51.86
64886;BME280;51514;52.206;5.114;2023-05-29T08:37:20;102741.28;;;16.22;52.62
64886;BME280;51514;52.206;5.114;2023-05-29T08:39:45;102745.09;;;16.29;53.68
64886;BME280;51514;52.206;5.114;2023-05-29T08:44:46;102745.28;;;16.46;52.19
64886;BME280;51514;52.206;5.114;2023-05-29T08:47:14;102729.38;;;16.51;53.13
64886;BME280;51514;52.206;5.114;2023-05-29T08:49:45;102731.63;;;16.65;54.43
64886;BME280;51514;52.206;5.114;2023-05-29T08:52:24;102737.22;;;16.63;52.35
64886;BME280;51514;52.206;5.114;2023-05-29T08:54:51;102751.97;;;16.61;52.58
64886;BME280;51514;52.206;5.114;2023-05-29T08:57:17;102738.09;;;16.64;52.22
64886;BME280;51514;52.206;5.114;2023-05-29T08:59:43;102737.31;;;16.71;53.09
64886;BME280;51514;52.206;5.114;2023-05-29T09:02:10;102737.75;;;16.67;52.40
64886;BME280;51514;52.206;5.114;2023-05-29T09:04:41;102740.31;;;16.68;53.05
64886;BME280;51514;52.206;5.114;2023-05-29T09:07:07;102739.19;;;16.71;51.42
64886;BME280;51514;52.206;5.114;2023-05-29T09:09:33;102741.03;;;16.70;51.55
64886;BME280;51514;52.206;5.114;2023-05-29T09:11:59;102735.75;;;16.69;51.73
64886;BME280;51514;52.206;5.114;2023-05-29T09:14:42;102741.97;;;16.79;50.88
64886;BME280;51514;52.206;5.114;2023-05-29T09:17:09;102746.13;;;16.83;51.36
64886;BME280;51514;52.206;5.114;2023-05-29T09:19:35;102738.44;;;16.96;52.46
64886;BME280;51514;52.206;5.114;2023-05-29T09:22:05;102749.13;;;17.07;52.35
64886;BME280;51514;52.206;5.114;2023-05-29T09:24:35;102744.81;;;17.23;52.42
64886;BME280;51514;52.206;5.114;2023-05-29T09:27:02;102748.88;;;17.36;52.40
64886;BME280;51514;52.206;5.114;2023-05-29T09:29:31;102746.75;;;17.48;52.00
64886;BME280;51514;52.206;5.114;2023-05-29T09:31:58;102736.06;;;17.55;51.67
64886;BME280;51514;52.206;5.114;2023-05-29T09:34:24;102741.84;;;17.51;50.75
64886;BME280;51514;52.206;5.114;2023-05-29T09:36:51;102736.16;;;17.45;50.64
64886;BME280;51514;52.206;5.114;2023-05-29T09:39:18;102748.88;;;17.36;50.54
64886;BME280;51514;52.206;5.114;2023-05-29T09:41:44;102745.69;;;17.41;51.18
64886;BME280;51514;52.206;5.114;2023-05-29T09:44:13;102737.25;;;17.52;50.71
64886;BME280;51514;52.206;5.114;2023-05-29T09:46:40;102736.69;;;17.66;50.70
64886;BME280;51514;52.206;5.114;2023-05-29T09:49:13;102729.28;;;17.76;49.89
64886;BME280;51514;52.206;5.114;2023-05-29T09:51:38;102738.47;;;17.75;49.80
64886;BME280;51514;52.206;5.114;2023-05-29T09:54:17;102731.00;;;17.77;49.00
64886;BME280;51514;52.206;5.114;2023-05-29T09:56:43;102738.91;;;17.63;49.85
64886;BME280;51514;52.206;5.114;2023-05-29T09:59:13;102736.31;;;17.61;49.13
64886;BME280;51514;52.206;5.114;2023-05-29T10:01:43;102731.94;;;17.68;50.03
64886;BME280;51514;52.206;5.114;2023-05-29T10:04:11;102730.94;;;17.69;49.65
64886;BME280;51514;52.206;5.114;2023-05-29T10:06:38;102724.78;;;17.67;49.86
64886;BME280;51514;52.206;5.114;2023-05-29T10:09:06;102734.38;;;17.71;51.02
64886;BME280;51514;52.206;5.114;2023-05-29T10:11:35;102724.72;;;17.85;50.48
64886;BME280;51514;52.206;5.114;2023-05-29T10:14:03;102723.53;;;17.87;50.45
64886;BME280;51514;52.206;5.114;2023-05-29T10:16:32;102719.34;;;17.93;49.51
64886;BME280;51514;52.206;5.114;2023-05-29T10:19:01;102715.09;;;17.99;50.21
64886;BME280;51514;52.206;5.114;2023-05-29T10:21:33;102705.91;;;18.08;50.18
64886;BME280;51514;52.206;5.114;2023-05-29T10:24:05;102721.22;;;17.93;49.29
64886;BME280;51514;52.206;5.114;2023-05-29T10:26:34;102719.00;;;17.96;48.56
64886;BME280;51514;52.206;5.114;2023-05-29T10:31:48;102720.38;;;18.26;49.52
64886;BME280;51514;52.206;5.114;2023-05-29T10:36:56;102715.09;;;18.33;49.27
64886;BME280;51514;52.206;5.114;2023-05-29T10:39:25;102716.81;;;18.34;49.61
64886;BME280;51514;52.206;5.114;2023-05-29T10:41:50;102711.75;;;18.47;49.72
64886;BME280;51514;52.206;5.114;2023-05-29T10:47:03;102712.47;;;18.57;49.24
64886;BME280;51514;52.206;5.114;2023-05-29T10:49:29;102708.50;;;18.51;49.51
64886;BME280;51514;52.206;5.114;2023-05-29T10:51:57;102710.88;;;18.46;49.52
64886;BME280;51514;52.206;5.114;2023-05-29T10:54:24;102704.72;;;18.36;49.75
64886;BME280;51514;52.206;5.114;2023-05-29T10:56:56;102714.94;;;18.34;51.25
64886;BME280;51514;52.206;5.114;2023-05-29T10:59:22;102706.41;;;18.37;51.24
64886;BME280;51514;52.206;5.114;2023-05-29T11:01:52;102706.44;;;18.45;50.75
64886;BME280;51514;52.206;5.114;2023-05-29T11:06:47;102710.03;;;18.46;49.94
64886;BME280;51514;52.206;5.114;2023-05-29T11:12:14;102714.97;;;18.50;49.80
64886;BME280;51514;52.206;5.114;2023-05-29T11:15:00;102716.22;;;18.56;48.55
64886;BME280;51514;52.206;5.114;2023-05-29T11:17:32;102712.44;;;18.49;48.91
64886;BME280;51514;52.206;5.114;2023-05-29T11:20:01;102703.31;;;18.32;49.46
64886;BME280;51514;52.206;5.114;2023-05-29T11:22:40;102716.50;;;18.37;50.99
64886;BME280;51514;52.206;5.114;2023-05-29T11:25:10;102720.28;;;18.52;50.77
64886;BME280;51514;52.206;5.114;2023-05-29T11:27:38;102715.34;;;18.55;50.60
64886;BME280;51514;52.206;5.114;2023-05-29T11:30:05;102706.88;;;18.67;50.04
64886;BME280;51514;52.206;5.114;2023-05-29T11:32:34;102709.81;;;18.73;50.02
64886;BME280;51514;52.206;5.114;2023-05-29T11:35:07;102711.88;;;18.79;50.63
64886;BME280;51514;52.206;5.114;2023-05-29T11:37:34;102711.88;;;18.87;49.29
64886;BME280;51514;52.206;5.114;2023-05-29T11:40:00;102710.72;;;18.90;49.38
64886;BME280;51514;52.206;5.114;2023-05-29T11:42:28;102711.41;;;18.92;48.26
64886;BME280;51514;52.206;5.114;2023-05-29T11:44:54;102707.28;;;19.04;49.21
64886;BME280;51514;52.206;5.114;2023-05-29T11:47:19;102713.66;;;19.13;49.71
64886;BME280;51514;52.206;5.114;2023-05-29T11:49:47;102716.34;;;19.05;49.10
64886;BME280;51514;52.206;5.114;2023-05-29T11:52:14;102716.88;;;19.00;48.58
64886;BME280;51514;52.206;5.114;2023-05-29T11:54:40;102717.03;;;19.07;49.22
64886;BME280;51514;52.206;5.114;2023-05-29T11:57:17;102714.63;;;19.04;49.31
64886;BME280;51514;52.206;5.114;2023-05-29T11:59:43;102716.88;;;19.08;49.61
64886;BME280;51514;52.206;5.114;2023-05-29T12:02:08;102717.72;;;19.09;49.14
64886;BME280;51514;52.206;5.114;2023-05-29T12:04:34;102729.69;;;19.08;49.44
64886;BME280;51514;52.206;5.114;2023-05-29T12:06:59;102716.53;;;19.03;48.70
64886;BME280;51514;52.206;5.114;2023-05-29T12:09:27;102716.50;;;18.95;49.16
64886;BME280;51514;52.206;5.114;2023-05-29T12:12:00;102719.25;;;18.95;48.81
64886;BME280;51514;52.206;5.114;2023-05-29T12:14:26;102715.97;;;18.83;49.32
64886;BME280;51514;52.206;5.114;2023-05-29T12:16:51;102713.53;;;18.72;49.07
64886;BME280;51514;52.206;5.114;2023-05-29T12:19:16;102705.72;;;18.69;49.40
64886;BME280;51514;52.206;5.114;2023-05-29T12:21:42;102705.84;;;18.59;48.52
64886;BME280;51514;52.206;5.114;2023-05-29T12:24:08;102702.88;;;18.53;49.12
64886;BME280;51514;52.206;5.114;2023-05-29T12:26:35;102706.88;;;18.58;49.55
64886;BME280;51514;52.206;5.114;2023-05-29T12:29:04;102708.50;;;18.51;48.98
64886;BME280;51514;52.206;5.114;2023-05-29T12:31:30;102703.03;;;18.43;50.20
64886;BME280;51514;52.206;5.114;2023-05-29T12:34:08;102695.16;;;18.40;49.35
64886;BME280;51514;52.206;5.114;2023-05-29T12:36:33;102692.38;;;18.32;49.99
64886;BME280;51514;52.206;5.114;2023-05-29T12:38:59;102696.16;;;18.39;49.99
64886;BME280;51514;52.206;5.114;2023-05-29T12:41:32;102701.28;;;18.34;49.56
64886;BME280;51514;52.206;5.114;2023-05-29T12:44:01;102700.25;;;18.35;49.57
64886;BME280;51514;52.206;5.114;2023-05-29T12:46:27;102702.84;;;18.45;49.46
64886;BME280;51514;52.206;5.114;2023-05-29T12:48:56;102693.31;;;18.49;48.89
64886;BME280;51514;52.206;5.114;2023-05-29T12:51:28;102695.16;;;18.40;49.02
64886;BME280;51514;52.206;5.114;2023-05-29T12:53:54;102690.22;;;18.44;50.33
64886;BME280;51514;52.206;5.114;2023-05-29T12:56:24;102692.47;;;18.48;50.07
64886;BME280;51514;52.206;5.114;2023-05-29T12:58:51;102697.25;;;18.54;50.26
64886;BME280;51514;52.206;5.114;2023-05-29T13:01:17;102701.00;;;18.53;49.83
64886;BME280;51514;52.206;5.114;2023-05-29T13:03:42;102704.47;;;18.64;51.09
64886;BME280;51514;52.206;5.114;2023-05-29T13:06:08;102696.66;;;18.77;49.45